sensor_id;sensor_type;location;lat;lon;timestamp;temperature;humidity
14014;DHT22;49110;52.584;13.408;2023-03-01T00:00:16;1.30;95.30
14014;DHT22;49110;52.584;13.408;2023-03-01T00:01:19;1.30;95.30
14014;DHT22;49110;52.584;13.408;2023-03-01T00:02:20;1.20;95.40
14014;DHT22;49110;52.584;13.408;2023-03-01T00:03:21;1.20;95.40
14014;DHT22;49110;52.584;13.408;2023-03-01T00:04:21;1.20;95.30
14014;DHT22;49110;52.584;13.408;2023-03-01T00:05:22;1.20;95.40
14014;DHT22;49110;52.584;13.408;2023-03-01T00:06:23;1.10;95.40
14014;DHT22;49110;52.584;13.408;2023-03-01T00:07:23;1.10;95.60
14014;DHT22;49110;52.584;13.408;2023-03-01T00:08:25;1.10;95.70
14014;DHT22;49110;52.584;13.408;2023-03-01T00:09:25;1.00;95.60
14014;DHT22;49110;52.584;13.408;2023-03-01T00:10:26;1.00;95.60
14014;DHT22;49110;52.584;13.408;2023-03-01T00:11:29;0.90;95.60
14014;DHT22;49110;52.584;13.408;2023-03-01T00:12:31;0.80;95.70
14014;DHT22;49110;52.584;13.408;2023-03-01T00:13:32;0.80;95.70
14014;DHT22;49110;52.584;13.408;2023-03-01T00:14:32;0.80;95.80
14014;DHT22;49110;52.584;13.408;2023-03-01T00:15:38;0.90;95.80
14014;DHT22;49110;52.584;13.408;2023-03-01T00:16:40;1.00;95.80
14014;DHT22;49110;52.584;13.408;2023-03-01T00:17:41;1.10;95.70
14014;DHT22;49110;52.584;13.408;2023-03-01T00:18:43;1.10;95.50
14014;DHT22;49110;52.584;13.408;2023-03-01T00:19:43;1.10;95.50
14014;DHT22;49110;52.584;13.408;2023-03-01T00:20:50;1.20;95.50
14014;DHT22;49110;52.584;13.408;2023-03-01T00:21:51;1.10;95.40
14014;DHT22;49110;52.584;13.408;2023-03-01T00:22:52;1.20;95.50
14014;DHT22;49110;52.584;13.408;2023-03-01T00:23:53;1.20;95.40
14014;DHT22;49110;52.584;13.408;2023-03-01T00:24:56;1.20;95.40
14014;DHT22;49110;52.584;13.408;2023-03-01T00:25:57;1.20;95.30
14014;DHT22;49110;52.584;13.408;2023-03-01T00:26:58;1.20;95.30
14014;DHT22;49110;52.584;13.408;2023-03-01T00:27:58;1.20;95.20
14014;DHT22;49110;52.584;13.408;2023-03-01T00:28:59;1.20;95.20
14014;DHT22;49110;52.584;13.408;2023-03-01T00:30:00;1.30;95.20
14014;DHT22;49110;52.584;13.408;2023-03-01T00:31:12;1.20;95.10
14014;DHT22;49110;52.584;13.408;2023-03-01T00:32:13;1.20;95.40
14014;DHT22;49110;52.584;13.408;2023-03-01T00:33:13;1.10;95.50
14014;DHT22;49110;52.584;13.408;2023-03-01T00:34:14;1.00;95.70
14014;DHT22;49110;52.584;13.408;2023-03-01T00:35:14;1.00;95.70
14014;DHT22;49110;52.584;13.408;2023-03-01T00:36:15;1.10;95.70
14014;DHT22;49110;52.584;13.408;2023-03-01T00:37:16;1.10;95.70
14014;DHT22;49110;52.584;13.408;2023-03-01T00:38:16;1.00;95.60
14014;DHT22;49110;52.584;13.408;2023-03-01T00:39:17;1.00;95.70
14014;DHT22;49110;52.584;13.408;2023-03-01T00:40:17;1.00;95.70
14014;DHT22;49110;52.584;13.408;2023-03-01T00:41:19;1.00;95.70
14014;DHT22;49110;52.584;13.408;2023-03-01T00:42:20;1.00;95.70
14014;DHT22;49110;52.584;13.408;2023-03-01T00:43:22;1.00;95.70
14014;DHT22;49110;52.584;13.408;2023-03-01T00:44:22;1.00;95.70
14014;DHT22;49110;52.584;13.408;2023-03-01T00:45:23;1.10;95.70
14014;DHT22;49110;52.584;13.408;2023-03-01T00:46:26;1.10;95.70
14014;DHT22;49110;52.584;13.408;2023-03-01T00:47:28;1.10;95.70
14014;DHT22;49110;52.584;13.408;2023-03-01T00:48:29;1.10;95.50
14014;DHT22;49110;52.584;13.408;2023-03-01T00:49:30;1.00;95.40
14014;DHT22;49110;52.584;13.408;2023-03-01T00:50:30;1.00;95.60
14014;DHT22;49110;52.584;13.408;2023-03-01T00:51:31;1.00;95.70
14014;DHT22;49110;52.584;13.408;2023-03-01T00:52:32;1.00;95.70
14014;DHT22;49110;52.584;13.408;2023-03-01T00:53:33;1.00;95.70
14014;DHT22;49110;52.584;13.408;2023-03-01T00:54:34;1.00;95.60
14014;DHT22;49110;52.584;13.408;2023-03-01T00:55:36;0.90;95.60
14014;DHT22;49110;52.584;13.408;2023-03-01T00:56:36;0.90;95.70
14014;DHT22;49110;52.584;13.408;2023-03-01T00:57:37;0.90;95.70
14014;DHT22;49110;52.584;13.408;2023-03-01T00:58:38;1.00;95.90
14014;DHT22;49110;52.584;13.408;2023-03-01T00:59:38;1.00;95.70
14014;DHT22;49110;52.584;13.408;2023-03-01T01:00:39;1.00;95.70
14014;DHT22;49110;52.584;13.408;2023-03-01T01:01:39;1.00;95.60
14014;DHT22;49110;52.584;13.408;2023-03-01T01:02:40;1.00;95.50
14014;DHT22;49110;52.584;13.408;2023-03-01T01:03:41;1.10;95.50
14014;DHT22;49110;52.584;13.408;2023-03-01T01:04:41;1.10;95.30
14014;DHT22;49110;52.584;13.408;2023-03-01T01:05:42;1.00;95.20
14014;DHT22;49110;52.584;13.408;2023-03-01T01:06:44;1.00;95.30
14014;DHT22;49110;52.584;13.408;2023-03-01T01:07:45;0.90;95.40
14014;DHT22;49110;52.584;13.408;2023-03-01T01:08:46;0.90;95.40
14014;DHT22;49110;52.584;13.408;2023-03-01T01:09:46;1.00;95.50
14014;DHT22;49110;52.584;13.408;2023-03-01T01:10:47;1.00;95.40
14014;DHT22;49110;52.584;13.408;2023-03-01T01:11:50;1.00;95.40
14014;DHT22;49110;52.584;13.408;2023-03-01T01:12:50;1.00;95.30
14014;DHT22;49110;52.584;13.408;2023-03-01T01:13:51;1.00;95.30
14014;DHT22;49110;52.584;13.408;2023-03-01T01:14:52;1.00;95.50
14014;DHT22;49110;52.584;13.408;2023-03-01T01:15:53;0.90;95.60
14014;DHT22;49110;52.584;13.408;2023-03-01T01:16:58;1.00;95.70
14014;DHT22;49110;52.584;13.408;2023-03-01T01:18:09;0.90;95.60
14014;DHT22;49110;52.584;13.408;2023-03-01T01:19:16;0.80;95.70
14014;DHT22;49110;52.584;13.408;2023-03-01T01:20:17;0.70;95.80
14014;DHT22;49110;52.584;13.408;2023-03-01T01:21:21;0.60;95.80
14014;DHT22;49110;52.584;13.408;2023-03-01T01:22:23;0.60;95.90
14014;DHT22;49110;52.584;13.408;2023-03-01T01:23:23;0.60;96.00
14014;DHT22;49110;52.584;13.408;2023-03-01T01:24:24;0.60;96.00
14014;DHT22;49110;52.584;13.408;2023-03-01T01:25:24;0.60;96.10
14014;DHT22;49110;52.584;13.408;2023-03-01T01:26:29;0.70;96.20
14014;DHT22;49110;52.584;13.408;2023-03-01T01:27:30;0.70;96.30
14014;DHT22;49110;52.584;13.408;2023-03-01T01:28:31;0.70;96.20
14014;DHT22;49110;52.584;13.408;2023-03-01T01:29:32;0.60;96.00
14014;DHT22;49110;52.584;13.408;2023-03-01T01:30:32;0.60;96.20
14014;DHT22;49110;52.584;13.408;2023-03-01T01:31:34;0.60;96.10
14014;DHT22;49110;52.584;13.408;2023-03-01T01:32:35;0.60;96.10
14014;DHT22;49110;52.584;13.408;2023-03-01T01:33:36;0.70;96.20
14014;DHT22;49110;52.584;13.408;2023-03-01T01:34:37;0.70;96.20
14014;DHT22;49110;52.584;13.408;2023-03-01T01:35:38;0.70;96.20
14014;DHT22;49110;52.584;13.408;2023-03-01T01:36:39;0.70;96.00
14014;DHT22;49110;52.584;13.408;2023-03-01T01:37:39;0.70;96.10
14014;DHT22;49110;52.584;13.408;2023-03-01T01:38:40;0.60;96.20
14014;DHT22;49110;52.584;13.408;2023-03-01T01:39:42;0.40;96.10
14014;DHT22;49110;52.584;13.408;2023-03-01T01:40:44;0.40;96.20
14014;DHT22;49110;52.584;13.408;2023-03-01T01:41:45;0.20;96.30
14014;DHT22;49110;52.584;13.408;2023-03-01T01:42:46;0.20;96.60
14014;DHT22;49110;52.584;13.408;2023-03-01T01:44:33;0.10;96.80
14014;DHT22;49110;52.584;13.408;2023-03-01T01:45:33;0.10;96.80
14014;DHT22;49110;52.584;13.408;2023-03-01T01:46:38;0.10;97.00
14014;DHT22;49110;52.584;13.408;2023-03-01T01:47:40;0.10;96.90
14014;DHT22;49110;52.584;13.408;2023-03-01T01:48:45;0.10;97.00
14014;DHT22;49110;52.584;13.408;2023-03-01T01:49:53;0.20;97.00
14014;DHT22;49110;52.584;13.408;2023-03-01T01:51:00;0.20;97.00
14014;DHT22;49110;52.584;13.408;2023-03-01T01:53:15;0.40;96.80
14014;DHT22;49110;52.584;13.408;2023-03-01T01:54:28;0.40;96.80
14014;DHT22;49110;52.584;13.408;2023-03-01T01:55:29;0.50;96.70
14014;DHT22;49110;52.584;13.408;2023-03-01T01:56:30;0.50;96.40
14014;DHT22;49110;52.584;13.408;2023-03-01T01:57:40;0.50;96.50
14014;DHT22;49110;52.584;13.408;2023-03-01T01:58:42;0.50;96.50
14014;DHT22;49110;52.584;13.408;2023-03-01T01:59:48;0.40;96.50
14014;DHT22;49110;52.584;13.408;2023-03-01T02:00:50;0.40;96.50
14014;DHT22;49110;52.584;13.408;2023-03-01T02:01:52;0.30;96.40
14014;DHT22;49110;52.584;13.408;2023-03-01T02:02:59;0.30;96.70
14014;DHT22;49110;52.584;13.408;2023-03-01T02:04:00;0.20;96.90
14014;DHT22;49110;52.584;13.408;2023-03-01T02:05:26;0.20;97.00
14014;DHT22;49110;52.584;13.408;2023-03-01T02:06:29;0.20;97.00
14014;DHT22;49110;52.584;13.408;2023-03-01T02:07:31;0.10;97.00
14014;DHT22;49110;52.584;13.408;2023-03-01T02:08:36;0.10;97.00
14014;DHT22;49110;52.584;13.408;2023-03-01T02:09:44;0.10;96.90
14014;DHT22;49110;52.584;13.408;2023-03-01T02:10:46;0.00;96.80
14014;DHT22;49110;52.584;13.408;2023-03-01T02:11:48;0.00;97.10
14014;DHT22;49110;52.584;13.408;2023-03-01T02:12:51;-0.10;97.20
14014;DHT22;49110;52.584;13.408;2023-03-01T02:13:53;0.00;97.20
14014;DHT22;49110;52.584;13.408;2023-03-01T02:14:54;0.00;97.30
14014;DHT22;49110;52.584;13.408;2023-03-01T02:15:54;0.00;97.20
14014;DHT22;49110;52.584;13.408;2023-03-01T02:16:55;-0.10;97.50
14014;DHT22;49110;52.584;13.408;2023-03-01T02:17:56;-0.10;97.30
14014;DHT22;49110;52.584;13.408;2023-03-01T02:18:57;-0.10;97.40
14014;DHT22;49110;52.584;13.408;2023-03-01T02:22:31;-0.20;97.40
14014;DHT22;49110;52.584;13.408;2023-03-01T02:23:33;-0.30;97.60
14014;DHT22;49110;52.584;13.408;2023-03-01T02:26:42;-0.40;97.90
14014;DHT22;49110;52.584;13.408;2023-03-01T02:28:45;-0.40;98.20
14014;DHT22;49110;52.584;13.408;2023-03-01T02:29:47;-0.30;98.10
14014;DHT22;49110;52.584;13.408;2023-03-01T02:30:49;-0.40;98.10
14014;DHT22;49110;52.584;13.408;2023-03-01T02:32:08;-0.40;98.20
14014;DHT22;49110;52.584;13.408;2023-03-01T02:33:10;-0.40;98.20
14014;DHT22;49110;52.584;13.408;2023-03-01T02:34:16;-0.40;98.30
14014;DHT22;49110;52.584;13.408;2023-03-01T02:35:18;-0.30;98.40
14014;DHT22;49110;52.584;13.408;2023-03-01T02:36:23;-0.30;98.30
14014;DHT22;49110;52.584;13.408;2023-03-01T02:37:25;-0.20;98.10
14014;DHT22;49110;52.584;13.408;2023-03-01T02:38:27;-0.20;98.10
14014;DHT22;49110;52.584;13.408;2023-03-01T02:39:32;-0.20;98.20
14014;DHT22;49110;52.584;13.408;2023-03-01T02:40:34;-0.20;98.40
14014;DHT22;49110;52.584;13.408;2023-03-01T02:41:37;-0.20;98.20
14014;DHT22;49110;52.584;13.408;2023-03-01T02:42:51;-0.10;98.20
14014;DHT22;49110;52.584;13.408;2023-03-01T02:43:52;-0.10;98.20
14014;DHT22;49110;52.584;13.408;2023-03-01T02:44:53;0.00;98.20
14014;DHT22;49110;52.584;13.408;2023-03-01T02:45:58;0.00;98.20
14014;DHT22;49110;52.584;13.408;2023-03-01T02:47:02;0.00;98.20
14014;DHT22;49110;52.584;13.408;2023-03-01T02:48:03;0.10;98.20
14014;DHT22;49110;52.584;13.408;2023-03-01T02:49:19;0.10;98.20
14014;DHT22;49110;52.584;13.408;2023-03-01T02:52:45;0.20;97.80
14014;DHT22;49110;52.584;13.408;2023-03-01T02:54:07;0.20;97.80
14014;DHT22;49110;52.584;13.408;2023-03-01T02:55:14;0.30;97.60
14014;DHT22;49110;52.584;13.408;2023-03-01T02:56:16;0.30;97.60
14014;DHT22;49110;52.584;13.408;2023-03-01T02:57:18;0.30;97.60
14014;DHT22;49110;52.584;13.408;2023-03-01T02:58:19;0.30;97.60
14014;DHT22;49110;52.584;13.408;2023-03-01T02:59:22;0.30;97.50
14014;DHT22;49110;52.584;13.408;2023-03-01T03:00:28;0.30;97.50
14014;DHT22;49110;52.584;13.408;2023-03-01T03:01:30;0.30;97.50
14014;DHT22;49110;52.584;13.408;2023-03-01T03:02:36;0.30;97.60
14014;DHT22;49110;52.584;13.408;2023-03-01T03:03:37;0.20;97.50
14014;DHT22;49110;52.584;13.408;2023-03-01T03:04:37;0.10;97.60
14014;DHT22;49110;52.584;13.408;2023-03-01T03:05:38;0.10;97.50
14014;DHT22;49110;52.584;13.408;2023-03-01T03:06:38;0.00;97.40
14014;DHT22;49110;52.584;13.408;2023-03-01T03:07:41;-0.10;97.50
14014;DHT22;49110;52.584;13.408;2023-03-01T03:08:42;-0.20;97.70
14014;DHT22;49110;52.584;13.408;2023-03-01T03:09:44;-0.20;98.10
14014;DHT22;49110;52.584;13.408;2023-03-01T03:10:44;-0.30;98.10
14014;DHT22;49110;52.584;13.408;2023-03-01T03:11:45;-0.20;98.10
14014;DHT22;49110;52.584;13.408;2023-03-01T03:12:54;-0.20;98.10
14014;DHT22;49110;52.584;13.408;2023-03-01T03:13:55;-0.10;98.20
14014;DHT22;49110;52.584;13.408;2023-03-01T03:14:56;-0.10;98.10
14014;DHT22;49110;52.584;13.408;2023-03-01T03:15:57;0.00;98.20
14014;DHT22;49110;52.584;13.408;2023-03-01T03:16:57;0.00;98.10
14014;DHT22;49110;52.584;13.408;2023-03-01T03:17:58;0.00;98.10
14014;DHT22;49110;52.584;13.408;2023-03-01T03:18:59;0.00;98.00
14014;DHT22;49110;52.584;13.408;2023-03-01T03:20:07;0.10;97.90
14014;DHT22;49110;52.584;13.408;2023-03-01T03:21:13;0.10;98.00
14014;DHT22;49110;52.584;13.408;2023-03-01T03:22:14;0.10;98.00
14014;DHT22;49110;52.584;13.408;2023-03-01T03:23:14;0.10;98.00
14014;DHT22;49110;52.584;13.408;2023-03-01T03:24:15;0.20;97.90
14014;DHT22;49110;52.584;13.408;2023-03-01T03:25:17;0.20;97.80
14014;DHT22;49110;52.584;13.408;2023-03-01T03:26:17;0.20;97.80
14014;DHT22;49110;52.584;13.408;2023-03-01T03:27:18;0.20;97.60
14014;DHT22;49110;52.584;13.408;2023-03-01T03:28:18;0.20;97.60
14014;DHT22;49110;52.584;13.408;2023-03-01T03:29:19;0.20;97.50
14014;DHT22;49110;52.584;13.408;2023-03-01T03:30:20;0.20;97.50
14014;DHT22;49110;52.584;13.408;2023-03-01T03:31:21;0.20;97.50
14014;DHT22;49110;52.584;13.408;2023-03-01T03:32:22;0.10;97.40
14014;DHT22;49110;52.584;13.408;2023-03-01T03:33:22;0.10;97.70
14014;DHT22;49110;52.584;13.408;2023-03-01T03:34:23;0.00;97.50
14014;DHT22;49110;52.584;13.408;2023-03-01T03:35:32;0.00;97.60
14014;DHT22;49110;52.584;13.408;2023-03-01T03:36:33;0.00;97.70
14014;DHT22;49110;52.584;13.408;2023-03-01T03:37:33;0.00;97.80
14014;DHT22;49110;52.584;13.408;2023-03-01T03:38:52;0.00;98.00
14014;DHT22;49110;52.584;13.408;2023-03-01T03:39:53;-0.10;97.90
14014;DHT22;49110;52.584;13.408;2023-03-01T03:41:06;-0.20;97.90
14014;DHT22;49110;52.584;13.408;2023-03-01T03:42:07;-0.30;98.10
14014;DHT22;49110;52.584;13.408;2023-03-01T03:43:10;-0.40;98.30
14014;DHT22;49110;52.584;13.408;2023-03-01T03:44:11;-0.40;98.50
14014;DHT22;49110;52.584;13.408;2023-03-01T03:45:11;-0.50;98.70
14014;DHT22;49110;52.584;13.408;2023-03-01T03:46:12;-0.40;98.80
14014;DHT22;49110;52.584;13.408;2023-03-01T03:47:13;-0.40;98.80
14014;DHT22;49110;52.584;13.408;2023-03-01T03:48:14;-0.40;98.60
14014;DHT22;49110;52.584;13.408;2023-03-01T03:49:14;-0.40;98.60
14014;DHT22;49110;52.584;13.408;2023-03-01T03:50:16;-0.30;98.80
14014;DHT22;49110;52.584;13.408;2023-03-01T03:51:18;-0.30;98.80
14014;DHT22;49110;52.584;13.408;2023-03-01T03:52:18;-0.20;98.80
14014;DHT22;49110;52.584;13.408;2023-03-01T03:53:20;-0.20;98.60
14014;DHT22;49110;52.584;13.408;2023-03-01T03:54:20;-0.10;98.40
14014;DHT22;49110;52.584;13.408;2023-03-01T03:55:21;0.00;98.20
14014;DHT22;49110;52.584;13.408;2023-03-01T03:56:21;0.00;98.20
14014;DHT22;49110;52.584;13.408;2023-03-01T03:57:26;0.00;98.20
14014;DHT22;49110;52.584;13.408;2023-03-01T03:58:26;0.00;98.20
14014;DHT22;49110;52.584;13.408;2023-03-01T03:59:27;0.00;98.20
14014;DHT22;49110;52.584;13.408;2023-03-01T04:00:28;-0.10;98.00
14014;DHT22;49110;52.584;13.408;2023-03-01T04:01:28;-0.10;98.20
14014;DHT22;49110;52.584;13.408;2023-03-01T04:02:29;-0.10;98.00
14014;DHT22;49110;52.584;13.408;2023-03-01T04:03:31;-0.10;98.00
14014;DHT22;49110;52.584;13.408;2023-03-01T04:04:32;0.00;98.00
14014;DHT22;49110;52.584;13.408;2023-03-01T04:05:33;0.00;97.90
14014;DHT22;49110;52.584;13.408;2023-03-01T04:06:33;0.00;97.80
14014;DHT22;49110;52.584;13.408;2023-03-01T04:07:37;0.00;97.80
14014;DHT22;49110;52.584;13.408;2023-03-01T04:08:38;0.00;97.70
14014;DHT22;49110;52.584;13.408;2023-03-01T04:09:39;0.00;97.70
14014;DHT22;49110;52.584;13.408;2023-03-01T04:10:45;0.00;97.80
14014;DHT22;49110;52.584;13.408;2023-03-01T04:11:46;0.00;97.90
14014;DHT22;49110;52.584;13.408;2023-03-01T04:12:46;0.00;97.90
14014;DHT22;49110;52.584;13.408;2023-03-01T04:13:47;0.00;97.80
14014;DHT22;49110;52.584;13.408;2023-03-01T04:14:47;-0.20;97.70
14014;DHT22;49110;52.584;13.408;2023-03-01T04:15:49;-0.30;97.90
14014;DHT22;49110;52.584;13.408;2023-03-01T04:16:50;-0.30;98.10
14014;DHT22;49110;52.584;13.408;2023-03-01T04:17:52;-0.40;98.20
14014;DHT22;49110;52.584;13.408;2023-03-01T04:18:53;-0.30;98.30
14014;DHT22;49110;52.584;13.408;2023-03-01T04:19:53;-0.30;98.30
14014;DHT22;49110;52.584;13.408;2023-03-01T04:20:54;-0.40;98.40
14014;DHT22;49110;52.584;13.408;2023-03-01T04:21:55;-0.50;98.50
14014;DHT22;49110;52.584;13.408;2023-03-01T04:23:02;-0.50;98.70
14014;DHT22;49110;52.584;13.408;2023-03-01T04:24:10;-0.60;98.70
14014;DHT22;49110;52.584;13.408;2023-03-01T04:25:11;-0.60;98.80
14014;DHT22;49110;52.584;13.408;2023-03-01T04:26:14;-0.60;98.90
14014;DHT22;49110;52.584;13.408;2023-03-01T04:27:14;-0.60;98.90
14014;DHT22;49110;52.584;13.408;2023-03-01T04:28:15;-0.60;98.80
14014;DHT22;49110;52.584;13.408;2023-03-01T04:29:16;-0.70;98.70
14014;DHT22;49110;52.584;13.408;2023-03-01T04:30:17;-0.60;98.90
14014;DHT22;49110;52.584;13.408;2023-03-01T04:31:19;-0.60;99.00
14014;DHT22;49110;52.584;13.408;2023-03-01T04:32:21;-0.60;98.90
14014;DHT22;49110;52.584;13.408;2023-03-01T04:33:22;-0.50;98.90
14014;DHT22;49110;52.584;13.408;2023-03-01T04:34:22;-0.50;99.00
14014;DHT22;49110;52.584;13.408;2023-03-01T04:35:26;-0.50;98.90
14014;DHT22;49110;52.584;13.408;2023-03-01T04:36:28;-0.40;98.90
14014;DHT22;49110;52.584;13.408;2023-03-01T04:37:29;-0.30;98.90
14014;DHT22;49110;52.584;13.408;2023-03-01T04:38:30;-0.30;98.70
14014;DHT22;49110;52.584;13.408;2023-03-01T04:39:30;-0.30;98.70
14014;DHT22;49110;52.584;13.408;2023-03-01T04:40:31;-0.30;98.70
14014;DHT22;49110;52.584;13.408;2023-03-01T04:41:31;-0.30;98.60
14014;DHT22;49110;52.584;13.408;2023-03-01T04:42:32;-0.30;98.50
14014;DHT22;49110;52.584;13.408;2023-03-01T04:43:33;-0.20;98.50
14014;DHT22;49110;52.584;13.408;2023-03-01T04:44:34;-0.10;98.40
14014;DHT22;49110;52.584;13.408;2023-03-01T04:45:35;-0.10;98.30
14014;DHT22;49110;52.584;13.408;2023-03-01T04:46:36;-0.10;98.20
14014;DHT22;49110;52.584;13.408;2023-03-01T04:47:36;-0.10;98.10
14014;DHT22;49110;52.584;13.408;2023-03-01T04:48:39;-0.10;98.10
14014;DHT22;49110;52.584;13.408;2023-03-01T04:49:40;-0.10;98.20
14014;DHT22;49110;52.584;13.408;2023-03-01T04:50:41;-0.10;98.00
14014;DHT22;49110;52.584;13.408;2023-03-01T04:51:42;-0.10;98.00
14014;DHT22;49110;52.584;13.408;2023-03-01T04:52:43;-0.10;98.00
14014;DHT22;49110;52.584;13.408;2023-03-01T04:53:44;-0.10;98.00
14014;DHT22;49110;52.584;13.408;2023-03-01T04:54:45;-0.10;98.00
14014;DHT22;49110;52.584;13.408;2023-03-01T04:55:45;-0.20;98.00
14014;DHT22;49110;52.584;13.408;2023-03-01T04:56:46;-0.20;98.10
14014;DHT22;49110;52.584;13.408;2023-03-01T04:57:46;-0.30;98.00
14014;DHT22;49110;52.584;13.408;2023-03-01T04:58:47;-0.30;98.10
14014;DHT22;49110;52.584;13.408;2023-03-01T04:59:47;-0.30;98.10
14014;DHT22;49110;52.584;13.408;2023-03-01T05:00:48;-0.40;98.30
14014;DHT22;49110;52.584;13.408;2023-03-01T05:01:49;-0.40;98.30
14014;DHT22;49110;52.584;13.408;2023-03-01T05:02:55;-0.50;98.50
14014;DHT22;49110;52.584;13.408;2023-03-01T05:03:56;-0.60;98.40
14014;DHT22;49110;52.584;13.408;2023-03-01T05:04:56;-0.70;98.50
14014;DHT22;49110;52.584;13.408;2023-03-01T05:05:58;-0.70;98.80
14014;DHT22;49110;52.584;13.408;2023-03-01T05:06:59;-0.70;98.90
14014;DHT22;49110;52.584;13.408;2023-03-01T05:08:02;-0.70;99.00
14014;DHT22;49110;52.584;13.408;2023-03-01T05:09:04;-0.70;99.10
14014;DHT22;49110;52.584;13.408;2023-03-01T05:10:05;-0.70;99.00
14014;DHT22;49110;52.584;13.408;2023-03-01T05:11:06;-0.70;99.10
14014;DHT22;49110;52.584;13.408;2023-03-01T05:12:09;-0.70;98.90
14014;DHT22;49110;52.584;13.408;2023-03-01T05:13:09;-0.70;99.00
14014;DHT22;49110;52.584;13.408;2023-03-01T05:14:10;-0.60;99.00
14014;DHT22;49110;52.584;13.408;2023-03-01T05:15:11;-0.60;99.00
14014;DHT22;49110;52.584;13.408;2023-03-01T05:16:13;-0.60;98.90
14014;DHT22;49110;52.584;13.408;2023-03-01T05:17:13;-0.60;98.70
14014;DHT22;49110;52.584;13.408;2023-03-01T05:18:14;-0.70;98.80
14014;DHT22;49110;52.584;13.408;2023-03-01T05:19:14;-0.70;98.90
14014;DHT22;49110;52.584;13.408;2023-03-01T05:20:15;-0.70;99.00
14014;DHT22;49110;52.584;13.408;2023-03-01T05:21:16;-0.70;99.10
14014;DHT22;49110;52.584;13.408;2023-03-01T05:22:17;-0.60;99.20
14014;DHT22;49110;52.584;13.408;2023-03-01T05:23:17;-0.60;99.20
14014;DHT22;49110;52.584;13.408;2023-03-01T05:24:18;-0.50;99.10
14014;DHT22;49110;52.584;13.408;2023-03-01T05:25:19;-0.50;99.00
14014;DHT22;49110;52.584;13.408;2023-03-01T05:26:21;-0.40;99.00
14014;DHT22;49110;52.584;13.408;2023-03-01T05:27:22;-0.40;98.80
14014;DHT22;49110;52.584;13.408;2023-03-01T05:28:22;-0.30;98.70
14014;DHT22;49110;52.584;13.408;2023-03-01T05:29:25;-0.40;98.60
14014;DHT22;49110;52.584;13.408;2023-03-01T05:30:25;-0.30;98.80
14014;DHT22;49110;52.584;13.408;2023-03-01T05:31:27;-0.30;98.70
14014;DHT22;49110;52.584;13.408;2023-03-01T05:32:28;-0.30;98.60
14014;DHT22;49110;52.584;13.408;2023-03-01T05:33:32;-0.30;98.60
14014;DHT22;49110;52.584;13.408;2023-03-01T05:34:34;-0.30;98.50
14014;DHT22;49110;52.584;13.408;2023-03-01T05:35:35;-0.30;98.40
14014;DHT22;49110;52.584;13.408;2023-03-01T05:36:36;-0.30;98.40
14014;DHT22;49110;52.584;13.408;2023-03-01T05:37:42;-0.30;98.40
14014;DHT22;49110;52.584;13.408;2023-03-01T05:38:43;-0.30;98.40
14014;DHT22;49110;52.584;13.408;2023-03-01T05:39:44;-0.30;98.40
14014;DHT22;49110;52.584;13.408;2023-03-01T05:40:46;-0.30;98.40
14014;DHT22;49110;52.584;13.408;2023-03-01T05:41:47;-0.30;98.40
14014;DHT22;49110;52.584;13.408;2023-03-01T05:42:53;-0.30;98.40
14014;DHT22;49110;52.584;13.408;2023-03-01T05:43:54;-0.20;98.40
14014;DHT22;49110;52.584;13.408;2023-03-01T05:44:55;-0.20;98.40
14014;DHT22;49110;52.584;13.408;2023-03-01T05:45:57;-0.30;98.20
14014;DHT22;49110;52.584;13.408;2023-03-01T05:46:58;-0.30;98.70
14014;DHT22;49110;52.584;13.408;2023-03-01T05:47:58;-0.30;98.50
14014;DHT22;49110;52.584;13.408;2023-03-01T05:48:59;-0.30;98.50
14014;DHT22;49110;52.584;13.408;2023-03-01T05:50:00;-0.30;98.50
14014;DHT22;49110;52.584;13.408;2023-03-01T05:51:00;-0.30;98.30
14014;DHT22;49110;52.584;13.408;2023-03-01T05:52:01;-0.40;98.30
14014;DHT22;49110;52.584;13.408;2023-03-01T05:53:04;-0.50;98.40
14014;DHT22;49110;52.584;13.408;2023-03-01T05:54:08;-0.60;98.60
14014;DHT22;49110;52.584;13.408;2023-03-01T05:55:09;-0.60;98.80
14014;DHT22;49110;52.584;13.408;2023-03-01T05:56:10;-0.60;98.90
14014;DHT22;49110;52.584;13.408;2023-03-01T05:57:11;-0.50;98.90
14014;DHT22;49110;52.584;13.408;2023-03-01T05:58:14;-0.50;99.00
14014;DHT22;49110;52.584;13.408;2023-03-01T05:59:27;-0.60;98.80
14014;DHT22;49110;52.584;13.408;2023-03-01T06:00:31;-0.60;98.90
14014;DHT22;49110;52.584;13.408;2023-03-01T06:01:32;-0.70;98.90
14014;DHT22;49110;52.584;13.408;2023-03-01T06:02:33;-0.70;99.10
14014;DHT22;49110;52.584;13.408;2023-03-01T06:03:34;-0.60;99.30
14014;DHT22;49110;52.584;13.408;2023-03-01T06:04:34;-0.60;99.20
14014;DHT22;49110;52.584;13.408;2023-03-01T06:05:35;-0.50;99.20
14014;DHT22;49110;52.584;13.408;2023-03-01T06:06:36;-0.60;99.00
14014;DHT22;49110;52.584;13.408;2023-03-01T06:07:38;-0.70;99.00
14014;DHT22;49110;52.584;13.408;2023-03-01T06:08:38;-0.70;99.20
14014;DHT22;49110;52.584;13.408;2023-03-01T06:09:39;-0.70;99.40
14014;DHT22;49110;52.584;13.408;2023-03-01T06:10:39;-0.70;99.40
14014;DHT22;49110;52.584;13.408;2023-03-01T06:11:40;-0.60;99.50
14014;DHT22;49110;52.584;13.408;2023-03-01T06:12:42;-0.60;99.60
14014;DHT22;49110;52.584;13.408;2023-03-01T06:13:44;-0.60;99.50
14014;DHT22;49110;52.584;13.408;2023-03-01T06:14:46;-0.50;99.60
14014;DHT22;49110;52.584;13.408;2023-03-01T06:15:47;-0.50;99.50
14014;DHT22;49110;52.584;13.408;2023-03-01T06:16:48;-0.50;99.30
14014;DHT22;49110;52.584;13.408;2023-03-01T06:17:49;-0.50;99.20
14014;DHT22;49110;52.584;13.408;2023-03-01T06:18:49;-0.50;99.30
14014;DHT22;49110;52.584;13.408;2023-03-01T06:19:50;-0.50;99.30
14014;DHT22;49110;52.584;13.408;2023-03-01T06:20:54;-0.40;99.30
14014;DHT22;49110;52.584;13.408;2023-03-01T06:21:55;-0.40;99.30
14014;DHT22;49110;52.584;13.408;2023-03-01T06:22:56;-0.40;99.30
14014;DHT22;49110;52.584;13.408;2023-03-01T06:23:56;-0.40;99.00
14014;DHT22;49110;52.584;13.408;2023-03-01T06:24:57;-0.50;98.90
14014;DHT22;49110;52.584;13.408;2023-03-01T06:25:57;-0.50;99.10
14014;DHT22;49110;52.584;13.408;2023-03-01T06:26:58;-0.50;99.00
14014;DHT22;49110;52.584;13.408;2023-03-01T06:27:58;-0.40;99.20
14014;DHT22;49110;52.584;13.408;2023-03-01T06:28:59;-0.50;99.20
14014;DHT22;49110;52.584;13.408;2023-03-01T06:29:59;-0.50;99.30
14014;DHT22;49110;52.584;13.408;2023-03-01T06:31:00;-0.50;99.30
14014;DHT22;49110;52.584;13.408;2023-03-01T06:32:01;-0.60;99.40
14014;DHT22;49110;52.584;13.408;2023-03-01T06:33:02;-0.70;99.50
14014;DHT22;49110;52.584;13.408;2023-03-01T06:34:05;-0.80;99.50
14014;DHT22;49110;52.584;13.408;2023-03-01T06:35:06;-0.80;99.60
14014;DHT22;49110;52.584;13.408;2023-03-01T06:36:07;-0.80;99.80
14014;DHT22;49110;52.584;13.408;2023-03-01T06:37:10;-0.80;99.60
14014;DHT22;49110;52.584;13.408;2023-03-01T06:38:10;-0.80;99.80